createdAt,value
2022-12-24T00:01:37.257Z,-0.55
2022-12-24T00:04:05.755Z,-0.53
2022-12-24T00:06:34.106Z,-0.50
2022-12-24T00:09:02.490Z,-0.62
2022-12-24T00:11:30.670Z,-0.70
2022-12-24T00:13:58.830Z,-0.75
2022-12-24T00:16:29.155Z,-0.71
2022-12-24T00:18:57.403Z,-0.67
2022-12-24T00:21:25.684Z,-0.72
2022-12-24T00:23:54.393Z,-0.75
2022-12-24T00:26:22.582Z,-0.82
2022-12-24T00:28:51.064Z,-0.82
2022-12-24T00:31:20.593Z,-0.87
2022-12-24T00:33:50.336Z,-0.88
2022-12-24T00:36:19.919Z,-0.83
2022-12-24T00:38:48.595Z,-0.90
2022-12-24T00:41:26.406Z,-0.95
2022-12-24T00:43:55.943Z,-0.92
2022-12-24T00:46:24.533Z,-0.88
2022-12-24T00:48:54.263Z,-0.94
2022-12-24T00:51:23.445Z,-0.94
2022-12-24T00:53:52.583Z,-0.98
2022-12-24T00:56:21.453Z,-0.98
2022-12-24T00:58:50.269Z,-1.08
2022-12-24T01:01:18.916Z,-1.04
2022-12-24T01:03:47.648Z,-1.02
2022-12-24T01:06:19.150Z,-1.06
2022-12-24T01:08:47.775Z,-1.06
2022-12-24T01:11:16.019Z,-1.07
2022-12-24T01:13:44.258Z,-1.09
2022-12-24T01:16:18.359Z,-1.13
2022-12-24T01:18:46.763Z,-1.10
2022-12-24T01:21:16.693Z,-1.13
2022-12-24T01:23:45.368Z,-1.06
2022-12-24T01:26:13.693Z,-1.05
2022-12-24T01:28:42.230Z,-1.03
2022-12-24T01:31:15.418Z,-1.13
2022-12-24T01:33:44.611Z,-1.07
2022-12-24T01:36:14.121Z,-1.11
2022-12-24T01:38:43.885Z,-1.10
2022-12-24T01:41:34.364Z,-1.15
2022-12-24T01:44:35.240Z,-1.23
2022-12-24T01:47:10.098Z,-1.28
2022-12-24T01:49:42.458Z,-1.32
2022-12-24T01:52:14.386Z,-1.28
2022-12-24T01:54:47.772Z,-1.26
2022-12-24T01:57:19.201Z,-1.26
2022-12-24T01:59:51.462Z,-1.34
2022-12-24T02:02:20.527Z,-1.19
2022-12-24T02:04:56.346Z,-1.26
2022-12-24T02:07:24.715Z,-1.23
2022-12-24T02:09:57.565Z,-1.23
2022-12-24T02:12:26.824Z,-1.25
2022-12-24T02:14:56.144Z,-1.26
2022-12-24T02:17:31.637Z,-1.31
2022-12-24T02:20:19.636Z,-1.43
2022-12-24T02:23:02.828Z,-1.45
2022-12-24T02:25:57.589Z,-1.48
2022-12-24T02:28:44.563Z,-1.39
2022-12-24T02:31:20.644Z,-1.26
2022-12-24T02:33:56.387Z,-1.37
2022-12-24T02:36:32.135Z,-1.54
2022-12-24T02:39:04.313Z,-1.47
2022-12-24T02:41:50.257Z,-1.52
2022-12-24T02:44:20.699Z,-1.52
2022-12-24T02:46:52.079Z,-1.54
2022-12-24T02:49:20.531Z,-1.38
2022-12-24T02:51:48.813Z,-1.39
2022-12-24T02:54:17.532Z,-1.44
2022-12-24T02:57:05.109Z,-1.51
2022-12-24T02:59:49.038Z,-1.51
2022-12-24T03:02:29.928Z,-1.62
2022-12-24T03:05:07.406Z,-1.65
2022-12-24T03:07:41.722Z,-1.71
2022-12-24T03:10:21.640Z,-1.63
2022-12-24T03:12:53.124Z,-1.60
2022-12-24T03:15:25.989Z,-1.66
2022-12-24T03:17:59.526Z,-1.67
2022-12-24T03:20:33.832Z,-1.72
2022-12-24T03:23:02.246Z,-1.71
2022-12-24T03:25:30.900Z,-1.71
2022-12-24T03:27:59.511Z,-1.74
2022-12-24T03:30:28.001Z,-1.79
2022-12-24T03:32:57.816Z,-1.73
2022-12-24T03:35:26.268Z,-1.74
2022-12-24T03:37:54.844Z,-1.77
2022-12-24T03:40:23.213Z,-1.79
2022-12-24T03:42:51.491Z,-1.78
2022-12-24T03:45:20.096Z,-1.74
2022-12-24T03:47:48.379Z,-1.80
2022-12-24T03:50:18.194Z,-1.84
2022-12-24T03:52:46.496Z,-1.87
2022-12-24T03:55:14.898Z,-1.83
2022-12-24T03:57:44.627Z,-1.85
2022-12-24T04:00:14.240Z,-1.79
2022-12-24T04:02:42.929Z,-1.83
2022-12-24T04:05:15.823Z,-1.90
2022-12-24T04:07:46.216Z,-1.95
2022-12-24T04:10:15.049Z,-1.95
2022-12-24T04:12:43.432Z,-2.16
2022-12-24T04:15:12.466Z,-2.01
2022-12-24T04:17:40.614Z,-1.98
2022-12-24T04:20:10.177Z,-2.11
2022-12-24T04:22:38.439Z,-1.99
2022-12-24T04:25:09.662Z,-2.03
2022-12-24T04:27:38.545Z,-2.02
2022-12-24T04:30:08.288Z,-2.04
2022-12-24T04:32:36.587Z,-2.07
2022-12-24T04:35:04.923Z,-2.11
2022-12-24T04:37:35.571Z,-2.11
2022-12-24T04:40:03.951Z,-2.12
2022-12-24T04:42:33.645Z,-2.11
2022-12-24T04:45:01.953Z,-2.12
2022-12-24T04:47:30.209Z,-2.11
2022-12-24T04:49:58.459Z,-2.15
2022-12-24T04:52:26.822Z,-2.19
2022-12-24T04:54:54.981Z,-2.15
2022-12-24T04:57:23.518Z,-2.07
2022-12-24T04:59:53.286Z,-2.05
2022-12-24T05:02:22.192Z,-2.06
2022-12-24T05:04:50.653Z,-2.11
2022-12-24T05:07:19.022Z,-2.09
2022-12-24T05:09:47.201Z,-2.10
2022-12-24T05:12:15.475Z,-2.24
2022-12-24T05:14:43.807Z,-2.17
2022-12-24T05:17:13.546Z,-2.16
2022-12-24T05:19:42.052Z,-2.08
2022-12-24T05:22:27.710Z,-2.04
2022-12-24T05:25:13.532Z,-2.08
2022-12-24T05:27:47.413Z,-2.18
2022-12-24T05:30:19.398Z,-2.19
2022-12-24T05:32:49.116Z,-2.18
2022-12-24T05:35:17.428Z,-2.24
2022-12-24T05:37:45.724Z,-2.35
2022-12-24T05:40:14.300Z,-2.21
2022-12-24T05:42:42.449Z,-2.16
2022-12-24T05:45:11.604Z,-2.13
2022-12-24T05:47:43.472Z,-2.11
2022-12-24T05:50:13.884Z,-2.00
2022-12-24T05:52:42.328Z,-1.93
2022-12-24T05:55:11.428Z,-2.00
2022-12-24T05:57:41.616Z,-2.05
2022-12-24T06:00:11.137Z,-2.09
2022-12-24T06:02:39.409Z,-2.09
2022-12-24T06:05:08.208Z,-2.09
2022-12-24T06:07:38.341Z,-2.15
2022-12-24T06:10:07.879Z,-2.13
2022-12-24T06:12:36.888Z,-2.14
2022-12-24T06:15:07.166Z,-2.08
2022-12-24T06:17:35.602Z,-2.09
2022-12-24T06:20:03.929Z,-2.09
2022-12-24T06:22:32.340Z,-2.11
2022-12-24T06:25:01.968Z,-2.12
2022-12-24T06:27:30.185Z,-2.11
2022-12-24T06:29:58.688Z,-2.08
2022-12-24T06:32:29.935Z,-2.09
2022-12-24T06:34:58.533Z,-2.15
2022-12-24T06:37:26.892Z,-2.19
2022-12-24T06:39:55.015Z,-2.09
2022-12-24T06:42:24.893Z,-2.14
2022-12-24T06:44:53.266Z,-2.13
2022-12-24T06:47:22.098Z,-2.10
2022-12-24T06:49:50.583Z,-2.07
2022-12-24T06:52:18.758Z,-2.20
2022-12-24T06:54:46.884Z,-2.14
2022-12-24T06:57:15.426Z,-2.20
2022-12-24T06:59:45.179Z,-2.25
2022-12-24T07:02:13.484Z,-2.25
2022-12-24T07:04:41.778Z,-2.21
2022-12-24T07:07:10.215Z,-2.23
2022-12-24T07:09:38.638Z,-2.24
2022-12-24T07:12:07.255Z,-2.28
2022-12-24T07:14:35.700Z,-2.20
2022-12-24T07:17:05.581Z,-2.21
2022-12-24T07:19:34.468Z,-2.22
2022-12-24T07:22:02.966Z,-2.21
2022-12-24T07:24:31.208Z,-2.20
2022-12-24T07:26:59.660Z,-2.18
2022-12-24T07:29:28.070Z,-2.24
2022-12-24T07:31:56.383Z,-2.21
2022-12-24T07:34:26.148Z,-2.18
2022-12-24T07:36:54.474Z,-2.14
2022-12-24T07:39:22.835Z,-2.12
2022-12-24T07:41:51.439Z,-2.09
2022-12-24T07:44:19.781Z,-2.08
2022-12-24T07:46:47.983Z,-2.09
2022-12-24T07:49:16.211Z,-2.10
2022-12-24T07:51:45.981Z,-2.15
2022-12-24T07:54:14.072Z,-2.20
2022-12-24T07:56:42.443Z,-2.22
2022-12-24T07:59:13.383Z,-2.29
2022-12-24T08:01:41.957Z,-2.28
2022-12-24T08:04:13.478Z,-2.33
2022-12-24T08:06:42.732Z,-2.30
2022-12-24T08:09:15.616Z,-2.36
2022-12-24T08:11:51.308Z,-2.35
2022-12-24T08:14:20.166Z,-2.28
2022-12-24T08:16:48.593Z,-2.29
2022-12-24T08:19:18.319Z,-2.22
2022-12-24T08:21:46.620Z,-2.21
2022-12-24T08:24:16.553Z,-2.21
2022-12-24T08:26:44.823Z,-2.22
2022-12-24T08:29:13.180Z,-2.20
2022-12-24T08:31:41.569Z,-2.18
2022-12-24T08:34:10.352Z,-2.16
2022-12-24T08:36:38.736Z,-2.17
2022-12-24T08:39:09.325Z,-2.18
2022-12-24T08:41:38.951Z,-2.07
2022-12-24T08:44:07.276Z,-2.03
2022-12-24T08:46:35.697Z,-2.04
2022-12-24T08:49:04.516Z,-2.02
2022-12-24T08:51:32.680Z,-2.00
2022-12-24T08:54:00.959Z,-1.97
2022-12-24T08:56:30.051Z,-1.96
2022-12-24T08:59:00.141Z,-1.93
2022-12-24T09:01:28.671Z,-1.94
2022-12-24T09:03:56.793Z,-1.94
2022-12-24T09:06:25.048Z,-1.93
2022-12-24T09:08:53.338Z,-1.92
2022-12-24T09:11:22.637Z,-1.92
2022-12-24T09:13:51.076Z,-1.90
2022-12-24T09:16:22.780Z,-1.93
2022-12-24T09:18:51.341Z,-1.89
2022-12-24T09:21:19.560Z,-1.87
2022-12-24T09:23:49.777Z,-1.82
2022-12-24T09:26:20.688Z,-1.79
2022-12-24T09:28:49.663Z,-1.77
2022-12-24T09:31:18.260Z,-1.77
2022-12-24T09:33:49.704Z,-1.77
2022-12-24T09:36:18.459Z,-1.74
2022-12-24T09:38:46.864Z,-1.70
2022-12-24T09:41:17.706Z,-1.63
2022-12-24T09:43:51.197Z,-1.64
2022-12-24T09:46:28.329Z,-1.61
2022-12-24T09:49:03.893Z,-1.59
2022-12-24T09:51:37.667Z,-1.54
2022-12-24T09:54:14.349Z,-1.38
2022-12-24T09:56:49.383Z,-1.25
2022-12-24T09:59:21.215Z,-1.17
2022-12-24T10:01:51.335Z,-1.14
2022-12-24T10:04:22.580Z,-1.05
2022-12-24T10:06:55.246Z,-1.01
2022-12-24T10:09:33.019Z,-0.91
2022-12-24T10:12:09.921Z,-1.08
2022-12-24T10:14:55.152Z,-0.81
2022-12-24T10:17:45.587Z,-0.70
2022-12-24T10:20:32.311Z,-0.78
2022-12-24T10:23:08.947Z,-0.69
2022-12-24T10:25:44.136Z,-0.68
2022-12-24T10:28:17.489Z,-0.49
2022-12-24T10:30:48.912Z,-0.46
2022-12-24T10:33:21.893Z,-0.45
2022-12-24T10:35:56.351Z,-0.58
2022-12-24T10:38:25.992Z,-0.58
2022-12-24T10:40:56.530Z,-0.53
2022-12-24T10:43:26.923Z,-0.46
2022-12-24T10:45:58.050Z,-0.47
2022-12-24T10:48:31.226Z,-0.33
2022-12-24T10:51:04.416Z,-0.27
2022-12-24T10:53:41.953Z,-0.28
2022-12-24T10:56:13.225Z,-0.35
2022-12-24T10:58:45.899Z,-0.41
2022-12-24T11:01:15.609Z,-0.44
2022-12-24T11:03:44.210Z,-0.47
2022-12-24T11:06:16.018Z,-0.47
2022-12-24T11:08:46.681Z,-0.42
2022-12-24T11:11:17.572Z,-0.29
2022-12-24T11:13:47.613Z,-0.20
2022-12-24T11:16:22.477Z,-0.18
2022-12-24T11:18:53.417Z,-0.15
2022-12-24T11:21:26.158Z,-0.10
2022-12-24T11:23:57.463Z,-0.21
2022-12-24T11:26:29.519Z,-0.22
2022-12-24T11:29:14.846Z,-0.29
2022-12-24T11:31:43.615Z,-0.15
2022-12-24T11:34:26.668Z,-0.25
2022-12-24T11:37:14.474Z,-0.19
2022-12-24T11:39:48.876Z,-0.10
2022-12-24T11:42:33.873Z,-0.08
2022-12-24T11:45:05.824Z,-0.02
2022-12-24T11:47:39.094Z,0.05
2022-12-24T11:50:26.000Z,-0.04
2022-12-24T11:53:00.478Z,0.03
2022-12-24T11:55:37.976Z,0.04
2022-12-24T11:58:16.737Z,0.10
2022-12-24T12:00:47.561Z,0.19
2022-12-24T12:03:29.212Z,0.19
2022-12-24T12:05:59.442Z,0.29
2022-12-24T12:08:31.746Z,0.35
2022-12-24T12:11:01.129Z,0.42
2022-12-24T12:13:33.758Z,0.38
2022-12-24T12:16:14.324Z,0.30
2022-12-24T12:18:49.172Z,0.24
2022-12-24T12:21:21.225Z,0.21
2022-12-24T12:23:54.395Z,0.23
2022-12-24T12:26:26.497Z,0.32
2022-12-24T12:28:59.871Z,0.35
2022-12-24T12:31:34.243Z,0.35
2022-12-24T12:34:10.402Z,0.22
2022-12-24T12:36:46.200Z,0.14
2022-12-24T12:39:16.457Z,0.16
2022-12-24T12:41:54.692Z,0.08
2022-12-24T12:44:46.157Z,0.02
2022-12-24T12:47:41.804Z,0.14
2022-12-24T12:50:18.396Z,0.16
2022-12-24T12:53:00.930Z,0.31
2022-12-24T12:55:42.747Z,0.24
2022-12-24T12:58:19.193Z,0.34
2022-12-24T13:00:52.931Z,0.37
2022-12-24T13:03:57.875Z,0.34
2022-12-24T13:06:58.087Z,0.37
2022-12-24T13:09:54.880Z,0.35
2022-12-24T13:12:42.444Z,0.35
2022-12-24T13:15:37.644Z,0.21
2022-12-24T13:18:27.467Z,0.14
2022-12-24T13:20:56.304Z,0.32
2022-12-24T13:23:27.616Z,0.40
2022-12-24T13:25:58.217Z,0.37
2022-12-24T13:28:36.078Z,0.38
2022-12-24T13:31:30.207Z,0.38
2022-12-24T13:34:01.715Z,0.42
2022-12-24T13:36:59.557Z,0.19
2022-12-24T13:39:27.879Z,0.20
2022-12-24T13:41:56.312Z,0.13
2022-12-24T13:44:33.200Z,0.16
2022-12-24T13:47:33.134Z,0.10
2022-12-24T13:50:22.612Z,0.06
2022-12-24T13:52:54.397Z,0.03
2022-12-24T13:55:23.455Z,0.12
2022-12-24T13:57:58.024Z,0.27
2022-12-24T14:00:40.023Z,0.30
2022-12-24T14:03:25.067Z,0.21
2022-12-24T14:05:56.898Z,0.17
2022-12-24T14:08:32.811Z,0.29
2022-12-24T14:11:07.070Z,0.24
2022-12-24T14:14:09.318Z,0.19
2022-12-24T14:16:49.297Z,0.35
2022-12-24T14:19:21.466Z,0.33
2022-12-24T14:21:56.812Z,0.23
2022-12-24T14:24:27.511Z,0.18
2022-12-24T14:27:00.187Z,0.24
2022-12-24T14:29:32.479Z,0.32
2022-12-24T14:32:05.231Z,0.40
2022-12-24T14:34:33.600Z,0.41
2022-12-24T14:37:05.715Z,0.41
2022-12-24T14:39:37.859Z,0.37
2022-12-24T14:42:23.276Z,0.35
2022-12-24T14:45:01.052Z,0.29
2022-12-24T14:47:39.121Z,0.29
2022-12-24T14:50:31.082Z,0.09
2022-12-24T14:53:13.416Z,0.23
2022-12-24T14:55:47.404Z,0.34
2022-12-24T14:58:32.107Z,0.17
2022-12-24T15:01:02.437Z,0.22
2022-12-24T15:03:33.730Z,0.30
2022-12-24T15:06:05.994Z,0.22
2022-12-24T15:08:38.866Z,0.19
2022-12-24T15:11:10.174Z,0.15
2022-12-24T15:13:40.962Z,0.16
2022-12-24T15:16:11.505Z,0.17
2022-12-24T15:18:46.860Z,0.20
2022-12-24T15:21:20.687Z,0.31
2022-12-24T15:23:51.194Z,0.23
2022-12-24T15:26:26.295Z,0.17
2022-12-24T15:29:02.324Z,0.19
2022-12-24T15:31:32.751Z,0.08
2022-12-24T15:34:02.466Z,-0.04
2022-12-24T15:36:34.134Z,-0.06
2022-12-24T15:39:05.745Z,-0.10
2022-12-24T15:42:01.338Z,-0.20
2022-12-24T15:44:34.099Z,-0.10
2022-12-24T15:47:04.012Z,-0.11
2022-12-24T15:49:35.870Z,-0.17
2022-12-24T15:52:06.919Z,-0.15
2022-12-24T15:54:36.509Z,-0.20
2022-12-24T15:57:15.779Z,-0.28
2022-12-24T15:59:44.319Z,-0.28
2022-12-24T16:02:38.412Z,-0.33
2022-12-24T16:05:32.645Z,-0.36
2022-12-24T16:08:23.320Z,-0.30
2022-12-24T16:10:54.981Z,-0.27
2022-12-24T16:13:26.522Z,-0.28
2022-12-24T16:15:57.329Z,-0.37
2022-12-24T16:18:27.659Z,-0.33
2022-12-24T16:20:57.992Z,-0.28
2022-12-24T16:23:31.196Z,-0.28
2022-12-24T16:26:00.106Z,-0.28
2022-12-24T16:28:28.335Z,-0.32
2022-12-24T16:30:57.429Z,-0.33
2022-12-24T16:33:25.737Z,-0.36
2022-12-24T16:35:54.136Z,-0.34
2022-12-24T16:38:24.037Z,-0.35
2022-12-24T16:40:52.222Z,-0.34
2022-12-24T16:43:38.104Z,-0.31
2022-12-24T16:46:08.405Z,-0.38
2022-12-24T16:48:39.312Z,-0.42
2022-12-24T16:51:07.859Z,-0.29
2022-12-24T16:53:37.945Z,-0.31
2022-12-24T16:56:10.390Z,-0.32
2022-12-24T16:58:38.607Z,-0.25
2022-12-24T17:01:10.965Z,-0.27
2022-12-24T17:03:39.492Z,-0.20
2022-12-24T17:06:09.494Z,-0.32
2022-12-24T17:08:39.002Z,-0.28
2022-12-24T17:11:07.865Z,-0.21
2022-12-24T17:13:35.983Z,-0.18
2022-12-24T17:16:04.275Z,-0.18
2022-12-24T17:18:32.735Z,-0.20
2022-12-24T17:21:01.712Z,-0.10
2022-12-24T17:23:30.029Z,-0.12
2022-12-24T17:26:00.326Z,-0.10
2022-12-24T17:28:28.406Z,-0.06
2022-12-24T17:30:58.756Z,-0.03
2022-12-24T17:33:27.153Z,-0.01
2022-12-24T17:35:55.389Z,0.09
2022-12-24T17:38:23.581Z,0.11
2022-12-24T17:40:52.015Z,0.16
2022-12-24T17:43:21.529Z,0.18
2022-12-24T17:45:49.658Z,0.19
2022-12-24T17:48:18.291Z,0.22
2022-12-24T17:50:46.360Z,0.29
2022-12-24T17:53:14.551Z,0.29
2022-12-24T17:55:44.008Z,0.35
2022-12-24T17:58:14.305Z,0.40
2022-12-24T18:00:44.006Z,0.50
2022-12-24T18:03:15.409Z,0.51
2022-12-24T18:05:43.655Z,0.52
2022-12-24T18:08:12.023Z,0.53
2022-12-24T18:10:40.425Z,0.28
2022-12-24T18:13:14.010Z,0.48
2022-12-24T18:15:48.710Z,0.44
2022-12-24T18:18:16.951Z,0.46
2022-12-24T18:20:47.030Z,0.46
2022-12-24T18:23:15.686Z,0.51
2022-12-24T18:25:43.994Z,0.43
2022-12-24T18:28:12.433Z,0.46
2022-12-24T18:30:40.725Z,0.48
2022-12-24T18:33:10.438Z,0.56
2022-12-24T18:35:38.700Z,0.55
2022-12-24T18:38:07.135Z,0.62
2022-12-24T18:40:38.377Z,0.62
2022-12-24T18:43:09.251Z,0.70
2022-12-24T18:45:42.180Z,0.60
2022-12-24T18:48:12.295Z,0.69
2022-12-24T18:50:42.151Z,0.72
2022-12-24T18:53:11.376Z,0.74
2022-12-24T18:55:40.304Z,0.80
2022-12-24T18:58:08.654Z,0.89
2022-12-24T19:00:36.841Z,0.92
2022-12-24T19:03:05.693Z,0.82
2022-12-24T19:05:35.371Z,0.73
2022-12-24T19:08:22.030Z,0.77
2022-12-24T19:10:54.771Z,0.78
2022-12-24T19:13:22.948Z,0.74
2022-12-24T19:15:51.171Z,0.83
2022-12-24T19:18:19.667Z,0.87
2022-12-24T19:20:49.263Z,0.86
2022-12-24T19:23:17.479Z,0.84
2022-12-24T19:25:46.143Z,0.85
2022-12-24T19:28:14.438Z,0.84
2022-12-24T19:30:43.777Z,0.78
2022-12-24T19:33:12.356Z,0.76
2022-12-24T19:35:40.533Z,0.78
2022-12-24T19:38:10.069Z,0.76
2022-12-24T19:40:38.778Z,0.78
2022-12-24T19:43:06.993Z,0.84
2022-12-24T19:45:35.562Z,0.81
2022-12-24T19:48:03.963Z,0.78
2022-12-24T19:50:33.104Z,0.81
2022-12-24T19:53:01.732Z,0.80
2022-12-24T19:55:31.650Z,0.76
2022-12-24T19:58:00.108Z,0.80
2022-12-24T20:00:28.213Z,0.85
2022-12-24T20:02:56.755Z,0.77
2022-12-24T20:05:24.992Z,0.78
2022-12-24T20:07:53.089Z,0.81
2022-12-24T20:10:21.365Z,0.86
2022-12-24T20:12:50.950Z,0.88
2022-12-24T20:15:19.216Z,0.88
2022-12-24T20:17:52.302Z,0.95
2022-12-24T20:20:20.548Z,0.87
2022-12-24T20:22:48.795Z,1.06
2022-12-24T20:25:17.110Z,1.02
2022-12-24T20:27:45.188Z,1.01
2022-12-24T20:30:15.981Z,0.96
2022-12-24T20:32:44.293Z,1.02
2022-12-24T20:35:12.448Z,0.91
2022-12-24T20:37:45.911Z,0.97
2022-12-24T20:40:15.172Z,0.92
2022-12-24T20:42:43.626Z,1.00
2022-12-24T20:45:11.912Z,0.97
2022-12-24T20:47:41.723Z,0.86
2022-12-24T20:50:10.465Z,0.95
2022-12-24T20:52:38.624Z,0.93
2022-12-24T20:55:07.924Z,1.04
2022-12-24T20:57:37.489Z,1.10
2022-12-24T21:00:06.908Z,1.19
2022-12-24T21:02:35.803Z,1.18
2022-12-24T21:05:09.167Z,1.18
2022-12-24T21:07:40.990Z,1.23
2022-12-24T21:10:10.230Z,1.25
2022-12-24T21:12:50.217Z,1.29
2022-12-24T21:15:19.237Z,1.29
2022-12-24T21:17:47.597Z,1.28
2022-12-24T21:20:18.878Z,1.27
2022-12-24T21:22:47.507Z,1.29
2022-12-24T21:25:15.764Z,1.29
2022-12-24T21:27:44.164Z,1.37
2022-12-24T21:30:12.929Z,1.27
2022-12-24T21:32:40.958Z,1.22
2022-12-24T21:35:09.374Z,1.24
2022-12-24T21:37:39.299Z,1.19
2022-12-24T21:40:09.665Z,1.19
2022-12-24T21:42:40.789Z,1.16
2022-12-24T21:45:10.655Z,1.24
2022-12-24T21:47:38.854Z,1.21
2022-12-24T21:50:32.047Z,1.24
2022-12-24T21:53:15.839Z,1.22
2022-12-24T21:55:44.267Z,1.18
2022-12-24T21:58:11.446Z,1.14
2022-12-24T22:00:39.630Z,1.19
2022-12-24T22:03:10.977Z,1.16
2022-12-24T22:05:39.051Z,1.21
2022-12-24T22:08:27.951Z,1.12
2022-12-24T22:11:25.058Z,1.10
2022-12-24T22:13:53.665Z,1.14
2022-12-24T22:16:21.844Z,1.19
2022-12-24T22:18:50.200Z,1.11
2022-12-24T22:21:18.727Z,1.03
2022-12-24T22:23:48.460Z,0.98
2022-12-24T22:26:18.764Z,0.96
2022-12-24T22:28:47.412Z,0.95
2022-12-24T22:31:19.548Z,0.94
2022-12-24T22:33:47.893Z,0.93
2022-12-24T22:36:16.116Z,0.96
2022-12-24T22:38:45.281Z,1.01
2022-12-24T22:41:15.232Z,1.06
2022-12-24T22:43:43.827Z,1.14
2022-12-24T22:46:14.452Z,1.09
2022-12-24T22:48:44.588Z,1.05
2022-12-24T22:51:14.319Z,1.08
2022-12-24T22:53:42.891Z,0.93
2022-12-24T22:56:16.828Z,1.07
2022-12-24T22:58:45.495Z,1.15
2022-12-24T23:01:14.092Z,1.18
2022-12-24T23:03:42.515Z,1.21
2022-12-24T23:06:11.108Z,1.21
2022-12-24T23:08:39.440Z,1.27
2022-12-24T23:11:12.626Z,1.26
2022-12-24T23:14:02.200Z,1.27
2022-12-24T23:16:31.896Z,1.29
2022-12-24T23:19:02.195Z,1.23
2022-12-24T23:21:30.600Z,1.28
2022-12-24T23:24:00.233Z,1.24
2022-12-24T23:26:29.621Z,1.20
2022-12-24T23:28:59.385Z,1.16
2022-12-24T23:31:27.959Z,1.17
2022-12-24T23:33:56.195Z,1.16
2022-12-24T23:36:24.341Z,1.15
2022-12-24T23:38:54.571Z,1.15
2022-12-24T23:41:22.922Z,1.20
2022-12-24T23:43:51.086Z,1.17
2022-12-24T23:46:21.452Z,1.18
2022-12-24T23:48:49.919Z,1.20
2022-12-24T23:51:19.725Z,1.18
2022-12-24T23:53:48.200Z,1.19
2022-12-24T23:56:16.513Z,1.17
2022-12-24T23:58:45.832Z,1.12
